Time;durP1;ratioP1;P1;durP2;ratioP2;P2;SDS_P1;SDS_P2;PMS_P1;PMS_P2;Temp;Humidity;BMP_temperature;BMP_pressure;BME280_temperature;BME280_humidity;BME280_pressure;Samples;Min_cycle;Max_cycle;Signal;HPM_P1;HPM_P2
2022/09/18 00:01:31;;;;;;;;;;;29.70;91.10;;;;;;5127671;28;19911;-59
2022/09/18 00:03:58;;;;;;;;;;;29.70;91.10;;;;;;5127815;28;19979;-59
2022/09/18 00:06:26;;;;;;;;;;;29.60;91.20;;;;;;5127515;28;19974;-60
2022/09/18 00:08:53;;;;;;;;;;;29.60;91.10;;;;;;5127395;28;20130;-60
2022/09/18 00:11:25;;;;;;;;;;;29.60;91.20;;;;;;5127463;28;19912;-60
2022/09/18 00:13:52;;;;;;;;;;;29.60;91.20;;;;;;5127456;28;20195;-59
2022/09/18 00:16:19;;;;;;;;;;;29.60;91.30;;;;;;5127279;28;20115;-60
2022/09/18 00:18:46;;;;;;;;;;;29.60;91.30;;;;;;5127524;28;19982;-61
2022/09/18 00:21:13;;;;;;;;;;;29.50;91.20;;;;;;5127001;28;19919;-61
2022/09/18 00:23:41;;;;;;;;;;;29.60;91.20;;;;;;5127199;28;19914;-61
2022/09/18 00:26:07;;;;;;;;;;;29.50;91.20;;;;;;5127280;28;19918;-61
2022/09/18 00:28:34;;;;;;;;;;;29.50;91.20;;;;;;5127121;28;19958;-60
2022/09/18 00:31:08;;;;;;;;;;;29.50;91.10;;;;;;5126916;28;20084;-59
2022/09/18 00:33:34;;;;;;;;;;;29.50;91.10;;;;;;5126941;28;19949;-59
2022/09/18 00:36:01;;;;;;;;;;;29.50;91.10;;;;;;5126620;28;19920;-59
2022/09/18 00:38:28;;;;;;;;;;;29.50;91.00;;;;;;5126879;28;19925;-60
2022/09/18 00:40:54;;;;;;;;;;;29.40;91.00;;;;;;5126746;28;19982;-57
2022/09/18 00:43:23;;;;;;;;;;;29.40;91.00;;;;;;5126689;28;19912;-60
2022/09/18 00:45:53;;;;;;;;;;;29.40;91.00;;;;;;5126572;28;19958;-60
2022/09/18 00:48:21;;;;;;;;;;;29.40;91.00;;;;;;5126507;28;19920;-59
2022/09/18 00:50:47;;;;;;;;;;;29.40;91.00;;;;;;5126775;28;19912;-60
2022/09/18 00:53:14;;;;;;;;;;;29.40;91.00;;;;;;5126521;28;19908;-58
2022/09/18 00:55:41;;;;;;;;;;;29.40;90.80;;;;;;5126456;28;19923;-59
2022/09/18 00:58:08;;;;;;;;;;;29.40;90.80;;;;;;5126511;28;19908;-61
2022/09/18 01:00:34;;;;;;;;;;;29.30;90.70;;;;;;5126349;28;19904;-60
2022/09/18 01:03:01;;;;;;;;;;;29.30;90.70;;;;;;5126624;28;19964;-60
2022/09/18 01:05:33;;;;;;;;;;;29.30;90.70;;;;;;5126967;28;19908;-60
2022/09/18 01:08:14;;;;;;;;;;;29.30;90.80;;;;;;5126410;28;19908;-61
2022/09/18 01:10:56;;;;;;;;;;;29.30;90.70;;;;;;5126313;28;19992;-60
2022/09/18 01:13:58;;;;;;;;;;;29.20;90.60;;;;;;5126309;28;19908;-60
2022/09/18 01:16:42;;;;;;;;;;;29.30;90.60;;;;;;5024006;28;19984;-61
2022/09/18 01:19:26;;;;;;;;;;;29.20;90.60;;;;;;5118338;28;19914;-61
2022/09/18 01:22:05;;;;;;;;;;;29.20;90.50;;;;;;5125923;28;19911;-60
2022/09/18 01:24:49;;;;;;;;;;;29.20;90.50;;;;;;5126306;28;19908;-61
2022/09/18 01:27:23;;;;;;;;;;;29.10;90.40;;;;;;5125789;28;19965;-61
2022/09/18 01:30:09;;;;;;;;;;;29.10;90.40;;;;;;5126132;28;19945;-61
2022/09/18 01:32:42;;;;;;;;;;;29.10;90.60;;;;;;5125595;28;19947;-61
2022/09/18 01:35:08;;;;;;;;;;;29.10;90.60;;;;;;5125662;28;19922;-61
2022/09/18 01:37:37;;;;;;;;;;;29.10;90.70;;;;;;5126167;28;19975;-60
2022/09/18 01:40:10;;;;;;;;;;;29.10;90.80;;;;;;5126005;28;19908;-60
2022/09/18 01:42:37;;;;;;;;;;;29.10;90.70;;;;;;5125697;28;20103;-60
2022/09/18 01:45:25;;;;;;;;;;;29.00;90.70;;;;;;5125576;28;19953;-61
2022/09/18 01:47:56;;;;;;;;;;;29.00;90.70;;;;;;5125734;28;19908;-61
2022/09/18 01:50:24;;;;;;;;;;;29.00;90.70;;;;;;5107231;28;20196;-61
2022/09/18 01:52:52;;;;;;;;;;;29.00;90.70;;;;;;5125655;28;20013;-60
2022/09/18 01:55:21;;;;;;;;;;;29.00;90.70;;;;;;5125911;28;19912;-59
2022/09/18 01:57:56;;;;;;;;;;;29.10;90.70;;;;;;5125406;28;19912;-59
2022/09/18 02:00:24;;;;;;;;;;;29.00;90.70;;;;;;5125320;28;19915;-60
2022/09/18 02:03:12;;;;;;;;;;;29.00;90.60;;;;;;5125225;28;19912;-60
2022/09/18 02:05:44;;;;;;;;;;;29.00;90.40;;;;;;5125365;28;20199;-60
2022/09/18 02:08:13;;;;;;;;;;;29.00;90.50;;;;;;5125312;28;20008;-60
2022/09/18 02:10:42;;;;;;;;;;;28.90;90.40;;;;;;5125457;28;20249;-61
2022/09/18 02:13:12;;;;;;;;;;;29.00;90.40;;;;;;5125312;28;20263;-60
2022/09/18 02:15:39;;;;;;;;;;;28.90;90.40;;;;;;5124849;28;19977;-60
2022/09/18 02:18:08;;;;;;;;;;;28.90;90.40;;;;;;5125291;28;19980;-60
2022/09/18 02:20:36;;;;;;;;;;;28.90;90.40;;;;;;5125983;28;19930;-60
2022/09/18 02:23:04;;;;;;;;;;;28.90;90.40;;;;;;5125237;28;19912;-59
2022/09/18 02:25:44;;;;;;;;;;;28.90;90.40;;;;;;5125562;28;19908;-59
2022/09/18 02:28:14;;;;;;;;;;;28.90;90.40;;;;;;5125076;28;19918;-60
2022/09/18 02:30:41;;;;;;;;;;;28.90;90.40;;;;;;5124982;28;20232;-60
2022/09/18 02:33:23;;;;;;;;;;;28.90;90.30;;;;;;5125143;28;19950;-60
2022/09/18 02:35:55;;;;;;;;;;;28.90;90.40;;;;;;5124693;28;19983;-60
2022/09/18 02:38:28;;;;;;;;;;;28.90;90.30;;;;;;5125105;28;19908;-61
2022/09/18 02:41:04;;;;;;;;;;;28.80;90.40;;;;;;5124795;28;19956;-58
2022/09/18 02:43:54;;;;;;;;;;;28.90;90.40;;;;;;5124936;28;20195;-60
2022/09/18 02:46:26;;;;;;;;;;;28.90;90.40;;;;;;5124576;28;19958;-60
2022/09/18 02:48:58;;;;;;;;;;;28.80;90.20;;;;;;5124883;28;19908;-59
2022/09/18 02:51:35;;;;;;;;;;;28.80;90.20;;;;;;5124654;28;19935;-59
2022/09/18 02:54:06;;;;;;;;;;;28.90;90.30;;;;;;5124922;28;19935;-59
2022/09/18 02:56:35;;;;;;;;;;;28.80;90.20;;;;;;5124765;28;19916;-63
2022/09/18 02:59:10;;;;;;;;;;;28.90;90.30;;;;;;5124769;28;19908;-61
2022/09/18 03:01:38;;;;;;;;;;;28.90;90.30;;;;;;5124765;28;20219;-62
2022/09/18 03:04:08;;;;;;;;;;;28.90;90.30;;;;;;5124689;28;19961;-60
2022/09/18 03:06:34;;;;;;;;;;;28.80;90.20;;;;;;5106702;28;19908;-60
2022/09/18 03:09:01;;;;;;;;;;;28.80;90.10;;;;;;5125077;28;20180;-61
2022/09/18 03:11:28;;;;;;;;;;;28.80;90.20;;;;;;5125227;28;19975;-62
2022/09/18 03:13:55;;;;;;;;;;;28.80;90.10;;;;;;5128709;28;19957;-60
2022/09/18 03:16:21;;;;;;;;;;;28.80;90.10;;;;;;5128691;28;20169;-61
2022/09/18 03:18:48;;;;;;;;;;;28.80;90.10;;;;;;5128555;28;20201;-60
2022/09/18 03:21:14;;;;;;;;;;;28.80;90.10;;;;;;5128464;28;19912;-60
2022/09/18 03:23:40;;;;;;;;;;;28.70;90.10;;;;;;5128397;28;20114;-60
2022/09/18 03:26:06;;;;;;;;;;;28.80;90.10;;;;;;5128317;28;20188;-60
2022/09/18 03:28:32;;;;;;;;;;;28.70;90.00;;;;;;5128244;28;19907;-60
2022/09/18 03:30:58;;;;;;;;;;;28.70;89.70;;;;;;5128522;28;19947;-61
2022/09/18 03:33:25;;;;;;;;;;;28.70;89.60;;;;;;5128377;28;19904;-60
2022/09/18 03:35:51;;;;;;;;;;;28.70;89.70;;;;;;5128097;28;20003;-60
2022/09/18 03:38:17;;;;;;;;;;;28.70;89.60;;;;;;5128127;28;19908;-58
2022/09/18 03:40:44;;;;;;;;;;;28.70;89.70;;;;;;5128702;28;20134;-60
2022/09/18 03:43:10;;;;;;;;;;;28.70;89.30;;;;;;5127970;28;19907;-60
2022/09/18 03:45:37;;;;;;;;;;;28.70;89.50;;;;;;5128678;28;20175;-59
2022/09/18 03:48:04;;;;;;;;;;;28.70;89.40;;;;;;5128006;28;19918;-59
2022/09/18 03:50:30;;;;;;;;;;;28.60;89.20;;;;;;5128026;28;19908;-60
2022/09/18 03:52:56;;;;;;;;;;;28.60;89.20;;;;;;5128154;28;19934;-59
2022/09/18 03:55:22;;;;;;;;;;;28.60;89.00;;;;;;5128425;28;19911;-60
2022/09/18 03:57:49;;;;;;;;;;;28.60;88.90;;;;;;5127650;28;19919;-60
2022/09/18 04:00:15;;;;;;;;;;;28.50;88.70;;;;;;5128629;28;19907;-61
2022/09/18 04:02:42;;;;;;;;;;;28.50;89.00;;;;;;5127801;28;19912;-61
2022/09/18 04:05:08;;;;;;;;;;;28.50;88.70;;;;;;5128097;28;20188;-59
2022/09/18 04:07:35;;;;;;;;;;;28.50;88.80;;;;;;5127534;28;19951;-59
2022/09/18 04:10:01;;;;;;;;;;;28.50;88.80;;;;;;5127243;28;19978;-59
2022/09/18 04:12:27;;;;;;;;;;;28.50;88.70;;;;;;5127488;28;20103;-58
2022/09/18 04:14:54;;;;;;;;;;;28.40;88.60;;;;;;5127531;28;19930;-60
2022/09/18 04:17:20;;;;;;;;;;;28.40;88.60;;;;;;5127339;28;19908;-58
2022/09/18 04:19:46;;;;;;;;;;;28.40;88.40;;;;;;5127747;28;19978;-59
2022/09/18 04:22:12;;;;;;;;;;;28.40;88.60;;;;;;5127323;28;19912;-59
2022/09/18 04:24:38;;;;;;;;;;;28.40;88.50;;;;;;5127428;28;19960;-59
2022/09/18 04:27:05;;;;;;;;;;;28.40;88.40;;;;;;5127270;28;20174;-59
2022/09/18 04:29:31;;;;;;;;;;;28.40;88.40;;;;;;5127341;28;19907;-59
2022/09/18 04:31:58;;;;;;;;;;;28.40;88.20;;;;;;5127080;28;19916;-59
2022/09/18 04:34:24;;;;;;;;;;;28.40;88.30;;;;;;5126842;28;19912;-59
2022/09/18 04:36:50;;;;;;;;;;;28.30;88.20;;;;;;5126937;28;19918;-59
2022/09/18 04:39:17;;;;;;;;;;;28.30;88.30;;;;;;5127139;28;19908;-59
2022/09/18 04:41:47;;;;;;;;;;;28.30;88.30;;;;;;5126991;28;19915;-59
2022/09/18 04:44:13;;;;;;;;;;;28.30;88.40;;;;;;5126589;28;20212;-60
2022/09/18 04:46:39;;;;;;;;;;;28.30;88.30;;;;;;5126782;28;19950;-59
2022/09/18 04:49:06;;;;;;;;;;;28.30;88.30;;;;;;5126594;28;19949;-59
2022/09/18 04:51:33;;;;;;;;;;;28.30;88.60;;;;;;5126700;28;19920;-59
2022/09/18 04:53:59;;;;;;;;;;;28.30;88.40;;;;;;5126700;28;19904;-62
2022/09/18 04:56:25;;;;;;;;;;;28.30;88.30;;;;;;5126374;28;19922;-60
2022/09/18 04:58:51;;;;;;;;;;;28.20;88.20;;;;;;5126399;28;19946;-59
2022/09/18 05:01:18;;;;;;;;;;;28.20;88.30;;;;;;5108303;28;19912;-60
2022/09/18 05:03:44;;;;;;;;;;;28.20;88.10;;;;;;5126636;28;19978;-60
2022/09/18 05:06:10;;;;;;;;;;;28.20;88.10;;;;;;5126369;28;19974;-59
2022/09/18 05:08:37;;;;;;;;;;;28.20;88.00;;;;;;5126587;28;19908;-60
2022/09/18 05:11:03;;;;;;;;;;;28.20;88.10;;;;;;5126187;28;19979;-60
2022/09/18 05:13:29;;;;;;;;;;;28.20;88.20;;;;;;5126465;28;19943;-59
2022/09/18 05:15:56;;;;;;;;;;;28.20;88.10;;;;;;5126309;28;19923;-60
2022/09/18 05:18:22;;;;;;;;;;;28.20;88.00;;;;;;5126263;28;19971;-60
2022/09/18 05:20:49;;;;;;;;;;;28.20;88.10;;;;;;5126269;28;19912;-62
2022/09/18 05:23:15;;;;;;;;;;;28.20;88.30;;;;;;5125880;28;19907;-60
2022/09/18 05:25:42;;;;;;;;;;;28.20;88.20;;;;;;5126429;28;19911;-61
2022/09/18 05:28:08;;;;;;;;;;;28.10;88.20;;;;;;5126155;28;19908;-60
2022/09/18 05:30:35;;;;;;;;;;;28.10;88.10;;;;;;5126363;28;20069;-59
2022/09/18 05:33:02;;;;;;;;;;;28.10;88.20;;;;;;5126179;28;19983;-59
2022/09/18 05:35:32;;;;;;;;;;;28.10;88.20;;;;;;5124842;28;19951;-60
2022/09/18 05:37:58;;;;;;;;;;;28.10;88.20;;;;;;5125808;28;19912;-60
2022/09/18 05:40:26;;;;;;;;;;;28.10;88.30;;;;;;5126269;28;19907;-59
2022/09/18 05:42:52;;;;;;;;;;;28.10;88.70;;;;;;5125758;28;19908;-61
2022/09/18 05:45:19;;;;;;;;;;;28.10;88.70;;;;;;5126013;28;19914;-60
2022/09/18 05:47:52;;;;;;;;;;;28.00;88.60;;;;;;5125634;28;19919;-60
2022/09/18 05:50:20;;;;;;;;;;;28.00;88.60;;;;;;5126128;28;19908;-59
2022/09/18 05:52:46;;;;;;;;;;;28.10;88.80;;;;;;5125537;28;19918;-59
2022/09/18 05:55:12;;;;;;;;;;;28.00;88.80;;;;;;5125867;28;19916;-59
2022/09/18 05:57:38;;;;;;;;;;;28.00;89.10;;;;;;5125561;28;19987;-59
2022/09/18 06:00:05;;;;;;;;;;;28.00;89.10;;;;;;5125745;28;19907;-60
2022/09/18 06:02:31;;;;;;;;;;;28.00;89.10;;;;;;5125279;28;19939;-59
2022/09/18 06:04:58;;;;;;;;;;;27.90;89.10;;;;;;5125723;28;19914;-60
2022/09/18 06:07:24;;;;;;;;;;;27.90;89.20;;;;;;5125180;28;19908;-59
2022/09/18 06:09:50;;;;;;;;;;;27.90;89.00;;;;;;5107059;28;20103;-59
2022/09/18 06:12:17;;;;;;;;;;;27.90;89.10;;;;;;5125136;28;19928;-59
2022/09/18 06:14:43;;;;;;;;;;;27.90;89.20;;;;;;5125264;28;19912;-60
2022/09/18 06:17:09;;;;;;;;;;;27.90;89.20;;;;;;5125327;28;19912;-60
2022/09/18 06:19:35;;;;;;;;;;;27.80;89.50;;;;;;5125423;28;19907;-60
2022/09/18 06:22:01;;;;;;;;;;;27.90;89.60;;;;;;5124955;28;19919;-60
2022/09/18 06:24:27;;;;;;;;;;;27.80;89.50;;;;;;5125399;28;19915;-59
2022/09/18 06:26:53;;;;;;;;;;;27.80;89.60;;;;;;5125081;28;19959;-60
2022/09/18 06:29:19;;;;;;;;;;;27.80;89.50;;;;;;5125006;28;19954;-59
2022/09/18 06:31:46;;;;;;;;;;;27.80;89.50;;;;;;5125185;28;19975;-59
2022/09/18 06:34:12;;;;;;;;;;;27.80;89.30;;;;;;5124767;28;19908;-60
2022/09/18 06:36:38;;;;;;;;;;;27.70;89.50;;;;;;5124719;28;19950;-59
2022/09/18 06:39:04;;;;;;;;;;;27.70;89.40;;;;;;5124996;28;19911;-60
2022/09/18 06:41:30;;;;;;;;;;;27.70;89.30;;;;;;5124867;28;19915;-61
2022/09/18 06:43:56;;;;;;;;;;;27.80;89.30;;;;;;5124735;28;19907;-59
2022/09/18 06:46:23;;;;;;;;;;;27.80;89.50;;;;;;5124241;28;19908;-60
2022/09/18 06:48:49;;;;;;;;;;;27.70;89.50;;;;;;5124889;28;19938;-60
2022/09/18 06:51:15;;;;;;;;;;;27.70;89.50;;;;;;5124756;28;19919;-59
2022/09/18 06:53:42;;;;;;;;;;;27.70;89.80;;;;;;5124626;28;19904;-59
2022/09/18 06:56:08;;;;;;;;;;;27.70;89.80;;;;;;5124464;28;20200;-59
2022/09/18 06:58:34;;;;;;;;;;;27.70;89.70;;;;;;5124674;28;19908;-60
2022/09/18 07:01:01;;;;;;;;;;;27.70;89.60;;;;;;5124572;28;20131;-60
2022/09/18 07:03:27;;;;;;;;;;;27.60;89.70;;;;;;5124681;28;19904;-59
2022/09/18 07:05:53;;;;;;;;;;;27.60;89.50;;;;;;5124654;28;19912;-60
2022/09/18 07:08:19;;;;;;;;;;;27.60;89.60;;;;;;5124390;28;19907;-59
2022/09/18 07:10:45;;;;;;;;;;;27.60;89.80;;;;;;5124600;28;19912;-59
2022/09/18 07:13:11;;;;;;;;;;;27.60;89.80;;;;;;5124536;28;19914;-59
2022/09/18 07:15:38;;;;;;;;;;;27.60;89.70;;;;;;5124641;28;19915;-59
2022/09/18 07:18:06;;;;;;;;;;;27.60;89.70;;;;;;5124682;28;20219;-59
2022/09/18 07:20:32;;;;;;;;;;;27.60;89.80;;;;;;5124956;28;19914;-59
2022/09/18 07:23:00;;;;;;;;;;;27.60;89.90;;;;;;5124535;28;19915;-59
2022/09/18 07:25:26;;;;;;;;;;;27.60;90.20;;;;;;5124767;28;19908;-59
2022/09/18 07:27:53;;;;;;;;;;;27.60;89.90;;;;;;5124506;28;19912;-59
2022/09/18 07:30:19;;;;;;;;;;;27.50;89.90;;;;;;5124274;28;19952;-59
2022/09/18 07:32:45;;;;;;;;;;;27.50;89.90;;;;;;5124315;28;19912;-59
2022/09/18 07:35:12;;;;;;;;;;;27.50;89.90;;;;;;5124284;28;20085;-61
2022/09/18 07:37:38;;;;;;;;;;;27.50;89.90;;;;;;5124403;28;19912;-60
2022/09/18 07:40:06;;;;;;;;;;;27.50;89.90;;;;;;5124620;28;19908;-59
2022/09/18 07:42:32;;;;;;;;;;;27.50;89.90;;;;;;5124334;28;20085;-60
2022/09/18 07:44:58;;;;;;;;;;;27.50;90.00;;;;;;5124449;28;19907;-62
2022/09/18 07:47:24;;;;;;;;;;;27.50;90.00;;;;;;5124223;28;19915;-59
2022/09/18 07:49:50;;;;;;;;;;;27.50;90.20;;;;;;5124500;28;20096;-60
2022/09/18 07:52:17;;;;;;;;;;;27.50;90.10;;;;;;5124342;28;20218;-59
2022/09/18 07:54:43;;;;;;;;;;;27.50;90.10;;;;;;5124442;28;19916;-59
2022/09/18 07:57:09;;;;;;;;;;;27.50;90.10;;;;;;5124342;28;19919;-59
2022/09/18 07:59:36;;;;;;;;;;;27.60;90.10;;;;;;5126477;28;20197;-59
2022/09/18 08:02:03;;;;;;;;;;;27.60;90.10;;;;;;5127524;28;20081;-59
2022/09/18 08:04:29;;;;;;;;;;;27.60;90.00;;;;;;5128049;28;19944;-61
2022/09/18 08:07:02;;;;;;;;;;;27.60;90.00;;;;;;5127494;28;19912;-62
2022/09/18 08:09:28;;;;;;;;;;;27.60;90.00;;;;;;5127295;28;20211;-60
2022/09/18 08:11:55;;;;;;;;;;;27.60;90.00;;;;;;5127645;28;19907;-62
2022/09/18 08:14:21;;;;;;;;;;;27.60;90.00;;;;;;5127564;28;19914;-58
2022/09/18 08:16:47;;;;;;;;;;;27.60;90.00;;;;;;5127401;28;19942;-58
2022/09/18 08:19:13;;;;;;;;;;;27.60;90.00;;;;;;5127596;28;19914;-59
2022/09/18 08:21:39;;;;;;;;;;;27.60;90.00;;;;;;5127425;28;20103;-60
2022/09/18 08:24:05;;;;;;;;;;;27.60;90.10;;;;;;5127423;28;19903;-61
2022/09/18 08:26:34;;;;;;;;;;;27.60;90.00;;;;;;5127366;28;19919;-60
2022/09/18 08:29:00;;;;;;;;;;;27.50;90.00;;;;;;5127332;28;19907;-61
2022/09/18 08:31:26;;;;;;;;;;;27.60;90.00;;;;;;5127154;28;19914;-58
2022/09/18 08:33:54;;;;;;;;;;;27.50;90.30;;;;;;5127170;28;19907;-58
2022/09/18 08:36:20;;;;;;;;;;;27.50;90.00;;;;;;5126831;28;19919;-60
2022/09/18 08:38:46;;;;;;;;;;;27.50;90.00;;;;;;5126989;28;19911;-60
2022/09/18 08:41:15;;;;;;;;;;;27.50;90.00;;;;;;5127068;28;19912;-59
2022/09/18 08:43:47;;;;;;;;;;;27.50;90.00;;;;;;5127050;28;19982;-59
2022/09/18 08:46:24;;;;;;;;;;;27.50;90.10;;;;;;5126638;28;20005;-59
2022/09/18 08:48:51;;;;;;;;;;;27.50;90.10;;;;;;5126900;28;19908;-59
2022/09/18 08:51:25;;;;;;;;;;;27.50;90.10;;;;;;5126672;28;19912;-59
2022/09/18 08:53:53;;;;;;;;;;;27.50;90.20;;;;;;5126611;28;19939;-59
2022/09/18 08:56:24;;;;;;;;;;;27.50;90.20;;;;;;5126637;28;19982;-59
2022/09/18 08:59:03;;;;;;;;;;;27.40;90.20;;;;;;5126724;28;19904;-57
2022/09/18 09:01:39;;;;;;;;;;;27.50;90.30;;;;;;5126692;28;19912;-59
2022/09/18 09:04:11;;;;;;;;;;;27.40;90.30;;;;;;5126618;28;20176;-59
2022/09/18 09:06:46;;;;;;;;;;;27.40;90.30;;;;;;5126608;28;19912;-60
2022/09/18 09:09:37;;;;;;;;;;;27.40;90.20;;;;;;5126512;28;19930;-59
2022/09/18 09:12:21;;;;;;;;;;;27.40;90.20;;;;;;5126466;28;20200;-59
2022/09/18 09:15:06;;;;;;;;;;;27.40;90.20;;;;;;5126140;28;19978;-62
2022/09/18 09:17:32;;;;;;;;;;;27.40;90.20;;;;;;5126244;28;19943;-61
2022/09/18 09:20:07;;;;;;;;;;;27.40;90.30;;;;;;5126537;28;20181;-60
2022/09/18 09:22:46;;;;;;;;;;;27.40;90.30;;;;;;5126166;28;19918;-58
2022/09/18 09:25:13;;;;;;;;;;;27.40;90.30;;;;;;5126479;28;19949;-60
2022/09/18 09:27:42;;;;;;;;;;;27.30;90.30;;;;;;5125960;28;19979;-59
2022/09/18 09:30:14;;;;;;;;;;;27.30;90.30;;;;;;5126486;28;19938;-60
2022/09/18 09:32:50;;;;;;;;;;;27.30;90.40;;;;;;5125827;28;19988;-59
2022/09/18 09:35:42;;;;;;;;;;;27.30;90.60;;;;;;5125786;28;19969;-60
2022/09/18 09:38:34;;;;;;;;;;;27.30;90.40;;;;;;5125966;28;19912;-59
2022/09/18 09:41:06;;;;;;;;;;;27.30;90.40;;;;;;5120950;28;19918;-60
2022/09/18 09:43:42;;;;;;;;;;;27.30;90.40;;;;;;5125679;28;19915;-59
2022/09/18 09:46:26;;;;;;;;;;;27.30;90.40;;;;;;5125574;28;19912;-59
2022/09/18 09:48:56;;;;;;;;;;;27.30;90.40;;;;;;5125714;28;19974;-59
2022/09/18 09:51:22;;;;;;;;;;;27.30;90.40;;;;;;5125465;28;19912;-59
2022/09/18 09:53:51;;;;;;;;;;;27.30;90.50;;;;;;5125713;28;19974;-59
2022/09/18 09:56:21;;;;;;;;;;;27.30;90.50;;;;;;5125403;28;19915;-59
2022/09/18 09:59:22;;;;;;;;;;;27.20;90.50;;;;;;5125530;28;19915;-60
2022/09/18 10:01:52;;;;;;;;;;;27.20;90.50;;;;;;5023261;28;19976;-59
2022/09/18 10:04:24;;;;;;;;;;;27.20;90.50;;;;;;5107390;28;19915;-59
2022/09/18 10:06:50;;;;;;;;;;;27.20;90.60;;;;;;5125401;28;19957;-64
2022/09/18 10:09:24;;;;;;;;;;;27.20;90.60;;;;;;5125268;28;19974;-59
2022/09/18 10:11:55;;;;;;;;;;;27.20;90.70;;;;;;5125354;28;19912;-60
2022/09/18 10:14:24;;;;;;;;;;;27.20;90.70;;;;;;5125302;28;19975;-59
2022/09/18 10:16:51;;;;;;;;;;;27.20;90.70;;;;;;5125057;28;19912;-59
2022/09/18 10:19:19;;;;;;;;;;;27.20;90.80;;;;;;5125427;28;19943;-59
2022/09/18 10:21:46;;;;;;;;;;;27.20;90.70;;;;;;5124626;28;20196;-59
2022/09/18 10:24:18;;;;;;;;;;;27.20;90.70;;;;;;5125144;28;19943;-59
2022/09/18 10:26:44;;;;;;;;;;;27.20;90.80;;;;;;5125209;28;20085;-59
2022/09/18 10:29:10;;;;;;;;;;;27.20;90.80;;;;;;5125076;28;19938;-61
2022/09/18 10:31:55;;;;;;;;;;;27.20;90.80;;;;;;5124725;28;20112;-59
2022/09/18 10:34:32;;;;;;;;;;;27.10;90.80;;;;;;5124898;28;20258;-59
2022/09/18 10:36:59;;;;;;;;;;;27.10;90.80;;;;;;5124966;28;20120;-59
2022/09/18 10:39:28;;;;;;;;;;;27.10;90.90;;;;;;5125115;28;19979;-58
2022/09/18 10:41:58;;;;;;;;;;;27.10;90.90;;;;;;5124736;28;19912;-60
2022/09/18 10:44:28;;;;;;;;;;;27.10;90.90;;;;;;5125179;28;20074;-60
2022/09/18 10:46:59;;;;;;;;;;;27.20;90.90;;;;;;5124683;28;20192;-60
2022/09/18 10:49:28;;;;;;;;;;;27.10;91.00;;;;;;5124993;28;19949;-58
2022/09/18 10:52:33;;;;;;;;;;;27.10;91.10;;;;;;5125022;28;20107;-58
2022/09/18 10:54:59;;;;;;;;;;;27.10;91.10;;;;;;5022596;28;19910;-58
2022/09/18 10:57:30;;;;;;;;;;;27.10;91.00;;;;;;5022618;28;19984;-56
2022/09/18 10:59:57;;;;;;;;;;;27.10;91.00;;;;;;5074437;28;19976;-60
2022/09/18 11:02:25;;;;;;;;;;;27.10;91.00;;;;;;5124667;28;20168;-59
2022/09/18 11:04:52;;;;;;;;;;;27.20;91.00;;;;;;5124920;28;19904;-59
2022/09/18 11:07:19;;;;;;;;;;;27.10;91.00;;;;;;5124344;28;19983;-59
2022/09/18 11:09:47;;;;;;;;;;;27.20;91.00;;;;;;5124959;28;19971;-58
2022/09/18 11:12:23;;;;;;;;;;;27.20;91.00;;;;;;5124455;28;19911;-62
2022/09/18 11:14:55;;;;;;;;;;;27.20;91.00;;;;;;5124670;28;19961;-57
2022/09/18 11:17:27;;;;;;;;;;;27.20;91.00;;;;;;5124392;28;19912;-59
2022/09/18 11:19:56;;;;;;;;;;;27.20;91.00;;;;;;5124449;28;19996;-59
2022/09/18 11:22:33;;;;;;;;;;;27.20;90.90;;;;;;5124221;28;19988;-57
2022/09/18 11:25:14;;;;;;;;;;;27.20;90.90;;;;;;5124486;28;19911;-58
2022/09/18 11:27:48;;;;;;;;;;;27.20;90.90;;;;;;5106459;28;20289;-60
2022/09/18 11:30:22;;;;;;;;;;;27.20;90.90;;;;;;5124518;28;20196;-60
2022/09/18 11:32:50;;;;;;;;;;;27.30;90.90;;;;;;5124369;28;19949;-60
2022/09/18 11:35:17;;;;;;;;;;;27.30;90.80;;;;;;5127555;28;19982;-60
2022/09/18 11:37:46;;;;;;;;;;;27.30;90.70;;;;;;5128137;28;19949;-57
2022/09/18 11:40:15;;;;;;;;;;;27.40;90.70;;;;;;5128695;28;19911;-59
2022/09/18 11:42:43;;;;;;;;;;;27.30;90.70;;;;;;5128491;28;20100;-59
2022/09/18 11:45:34;;;;;;;;;;;27.40;90.70;;;;;;5128045;28;19944;-59
2022/09/18 11:48:00;;;;;;;;;;;27.40;90.70;;;;;;5128057;28;20107;-58
2022/09/18 11:50:30;;;;;;;;;;;27.50;90.70;;;;;;5128378;28;19949;-60
2022/09/18 11:52:59;;;;;;;;;;;27.50;90.70;;;;;;5127888;28;20222;-59
2022/09/18 11:55:46;;;;;;;;;;;27.50;90.70;;;;;;5128417;28;19912;-60
2022/09/18 11:58:41;;;;;;;;;;;27.50;90.70;;;;;;5128124;28;19912;-60
2022/09/18 12:01:20;;;;;;;;;;;27.60;90.70;;;;;;5106226;28;19919;-60
2022/09/18 12:03:56;;;;;;;;;;;27.60;90.70;;;;;;5127865;28;19950;-60
2022/09/18 12:06:27;;;;;;;;;;;27.60;90.70;;;;;;5127707;28;19954;-59
2022/09/18 12:09:03;;;;;;;;;;;27.70;90.70;;;;;;5127762;28;19915;-60
2022/09/18 12:11:29;;;;;;;;;;;27.70;90.70;;;;;;5127365;28;19908;-60
2022/09/18 12:13:55;;;;;;;;;;;27.80;90.70;;;;;;5127848;28;19973;-60
2022/09/18 12:16:38;;;;;;;;;;;27.80;90.70;;;;;;5127577;28;19919;-60
2022/09/18 12:19:08;;;;;;;;;;;27.80;90.70;;;;;;5127680;28;19915;-60
2022/09/18 12:21:54;;;;;;;;;;;27.90;90.70;;;;;;5127602;28;19907;-60
2022/09/18 12:24:21;;;;;;;;;;;27.90;90.70;;;;;;5110254;28;19943;-61
2022/09/18 12:26:47;;;;;;;;;;;27.90;90.60;;;;;;5127412;28;19949;-62
2022/09/18 12:29:22;;;;;;;;;;;27.90;90.60;;;;;;5126899;28;20250;-59
2022/09/18 12:31:56;;;;;;;;;;;28.00;90.60;;;;;;5127390;28;20097;-60
2022/09/18 12:34:31;;;;;;;;;;;28.00;90.60;;;;;;5126739;28;19953;-61
2022/09/18 12:37:05;;;;;;;;;;;28.00;90.50;;;;;;5126993;28;19991;-60
2022/09/18 12:39:54;;;;;;;;;;;28.10;90.50;;;;;;5127333;28;19966;-59
2022/09/18 12:42:39;;;;;;;;;;;28.10;90.50;;;;;;5113729;28;19911;-59
2022/09/18 12:45:21;;;;;;;;;;;28.10;90.40;;;;;;5126697;28;19908;-62
2022/09/18 12:47:54;;;;;;;;;;;28.20;90.40;;;;;;5127004;28;19908;-60
2022/09/18 12:50:23;;;;;;;;;;;28.20;90.30;;;;;;5127049;28;19914;-59
2022/09/18 12:53:01;;;;;;;;;;;28.20;90.30;;;;;;5126827;28;19933;-57
2022/09/18 12:55:36;;;;;;;;;;;28.20;90.40;;;;;;5127261;28;20211;-59
2022/09/18 12:58:05;;;;;;;;;;;28.20;90.40;;;;;;5127015;28;19911;-58
2022/09/18 13:00:32;;;;;;;;;;;28.20;90.30;;;;;;5127035;28;19911;-62
2022/09/18 13:03:07;;;;;;;;;;;28.20;90.40;;;;;;5108308;28;19912;-59
2022/09/18 13:05:37;;;;;;;;;;;28.30;90.40;;;;;;5126994;28;20001;-57
2022/09/18 13:08:22;;;;;;;;;;;28.30;90.40;;;;;;5126583;28;19911;-58
2022/09/18 13:10:50;;;;;;;;;;;28.30;90.40;;;;;;5126480;28;19912;-60
2022/09/18 13:13:16;;;;;;;;;;;28.30;90.50;;;;;;5126192;28;19960;-60
2022/09/18 13:15:45;;;;;;;;;;;28.30;90.40;;;;;;5126263;28;19916;-60
2022/09/18 13:18:11;;;;;;;;;;;28.30;90.30;;;;;;5126109;28;19904;-58
2022/09/18 13:20:39;;;;;;;;;;;28.40;90.30;;;;;;5126671;28;19908;-60
2022/09/18 13:23:09;;;;;;;;;;;28.40;90.30;;;;;;5126139;28;19943;-59
2022/09/18 13:25:39;;;;;;;;;;;28.40;90.40;;;;;;5126689;28;19961;-59
2022/09/18 13:28:10;;;;;;;;;;;28.40;90.30;;;;;;5126150;28;19978;-60
2022/09/18 13:30:36;;;;;;;;;;;28.50;90.30;;;;;;5125984;28;20232;-61
2022/09/18 13:33:02;;;;;;;;;;;28.50;90.30;;;;;;5126120;28;19912;-62
2022/09/18 13:35:33;;;;;;;;;;;28.50;90.30;;;;;;5125823;28;19939;-60
2022/09/18 13:38:26;;;;;;;;;;;28.50;90.20;;;;;;5126006;28;19919;-59
2022/09/18 13:40:57;;;;;;;;;;;28.50;90.20;;;;;;5123160;28;19912;-58
2022/09/18 13:43:32;;;;;;;;;;;28.50;90.10;;;;;;5125887;28;19939;-60
2022/09/18 13:45:59;;;;;;;;;;;28.60;90.20;;;;;;5125650;28;19921;-60
2022/09/18 13:48:43;;;;;;;;;;;28.60;90.10;;;;;;5125537;28;20004;-60
2022/09/18 13:51:16;;;;;;;;;;;28.60;90.00;;;;;;5125973;28;20112;-60
2022/09/18 13:53:43;;;;;;;;;;;28.60;90.00;;;;;;5125856;28;20199;-62
2022/09/18 13:56:13;;;;;;;;;;;28.60;90.00;;;;;;5124795;28;19934;-57
2022/09/18 13:58:48;;;;;;;;;;;28.60;90.00;;;;;;5125346;28;19907;-58
2022/09/18 14:01:33;;;;;;;;;;;28.70;89.60;;;;;;5122060;28;19916;-57
2022/09/18 14:03:59;;;;;;;;;;;28.70;89.90;;;;;;5114574;28;19930;-58
2022/09/18 14:06:34;;;;;;;;;;;28.70;89.80;;;;;;5113159;28;20203;-56
2022/09/18 14:09:00;;;;;;;;;;;28.70;89.30;;;;;;5105030;28;19908;-57
2022/09/18 14:11:27;;;;;;;;;;;28.80;89.10;;;;;;5104734;28;19912;-57
2022/09/18 14:13:54;;;;;;;;;;;28.70;89.30;;;;;;5110951;28;19908;-58
2022/09/18 14:16:22;;;;;;;;;;;28.80;89.30;;;;;;5104721;28;19986;-59
2022/09/18 14:18:48;;;;;;;;;;;28.80;89.10;;;;;;5104831;28;20164;-62
2022/09/18 14:21:20;;;;;;;;;;;28.80;89.20;;;;;;5107613;28;20078;-59
2022/09/18 14:23:48;;;;;;;;;;;28.80;89.00;;;;;;5109446;28;19979;-59
2022/09/18 14:26:30;;;;;;;;;;;28.80;88.90;;;;;;5106898;28;19912;-58
2022/09/18 14:29:16;;;;;;;;;;;28.80;88.90;;;;;;5125113;28;19910;-59
2022/09/18 14:31:46;;;;;;;;;;;28.90;88.70;;;;;;5116625;28;20142;-60
2022/09/18 14:34:12;;;;;;;;;;;28.90;88.60;;;;;;5104416;28;20252;-61